sensor_id;sensor_type;location;lat;lon;timestamp;P1;durP1;ratioP1;P2;durP2;ratioP2
13943;SDS011;7044;53.286;8.534;2023-06-22T00:00:46;20.23;;;15.55;;
13943;SDS011;7044;53.286;8.534;2023-06-22T00:03:13;18.92;;;16.15;;
13943;SDS011;7044;53.286;8.534;2023-06-22T00:05:40;17.20;;;15.43;;
13943;SDS011;7044;53.286;8.534;2023-06-22T00:08:07;20.67;;;16.77;;
13943;SDS011;7044;53.286;8.534;2023-06-22T00:10:34;19.75;;;16.40;;
13943;SDS011;7044;53.286;8.534;2023-06-22T00:13:01;24.02;;;19.90;;
13943;SDS011;7044;53.286;8.534;2023-06-22T00:15:28;22.23;;;18.13;;
13943;SDS011;7044;53.286;8.534;2023-06-22T00:17:56;25.25;;;19.88;;
13943;SDS011;7044;53.286;8.534;2023-06-22T00:20:24;24.13;;;18.27;;
13943;SDS011;7044;53.286;8.534;2023-06-22T00:22:53;16.60;;;14.80;;
13943;SDS011;7044;53.286;8.534;2023-06-22T00:25:19;17.00;;;13.55;;
13943;SDS011;7044;53.286;8.534;2023-06-22T00:27:46;15.10;;;13.50;;
13943;SDS011;7044;53.286;8.534;2023-06-22T00:30:14;12.45;;;11.13;;
13943;SDS011;7044;53.286;8.534;2023-06-22T00:32:42;13.25;;;9.32;;
13943;SDS011;7044;53.286;8.534;2023-06-22T00:35:11;11.15;;;9.55;;
13943;SDS011;7044;53.286;8.534;2023-06-22T00:37:38;10.98;;;9.65;;
13943;SDS011;7044;53.286;8.534;2023-06-22T00:40:07;10.95;;;9.77;;
13943;SDS011;7044;53.286;8.534;2023-06-22T00:42:36;12.65;;;9.65;;
13943;SDS011;7044;53.286;8.534;2023-06-22T00:45:03;11.10;;;9.90;;
13943;SDS011;7044;53.286;8.534;2023-06-22T00:47:31;11.70;;;10.43;;
13943;SDS011;7044;53.286;8.534;2023-06-22T00:49:58;13.93;;;12.07;;
13943;SDS011;7044;53.286;8.534;2023-06-22T00:52:26;14.82;;;12.10;;
13943;SDS011;7044;53.286;8.534;2023-06-22T00:54:55;15.90;;;13.35;;
13943;SDS011;7044;53.286;8.534;2023-06-22T00:57:23;16.52;;;14.68;;
13943;SDS011;7044;53.286;8.534;2023-06-22T00:59:53;15.20;;;13.60;;
13943;SDS011;7044;53.286;8.534;2023-06-22T01:02:20;16.50;;;14.52;;
13943;SDS011;7044;53.286;8.534;2023-06-22T01:04:47;22.63;;;15.85;;
13943;SDS011;7044;53.286;8.534;2023-06-22T01:07:19;19.70;;;17.05;;
13943;SDS011;7044;53.286;8.534;2023-06-22T01:09:56;21.38;;;17.27;;
13943;SDS011;7044;53.286;8.534;2023-06-22T01:12:30;21.30;;;17.40;;
13943;SDS011;7044;53.286;8.534;2023-06-22T01:15:05;20.20;;;17.40;;
13943;SDS011;7044;53.286;8.534;2023-06-22T01:17:35;21.00;;;16.92;;
13943;SDS011;7044;53.286;8.534;2023-06-22T01:20:02;19.55;;;16.50;;
13943;SDS011;7044;53.286;8.534;2023-06-22T01:22:32;20.38;;;16.45;;
13943;SDS011;7044;53.286;8.534;2023-06-22T01:25:09;19.73;;;16.15;;
13943;SDS011;7044;53.286;8.534;2023-06-22T01:27:40;20.45;;;15.77;;
13943;SDS011;7044;53.286;8.534;2023-06-22T01:30:20;18.45;;;15.88;;
13943;SDS011;7044;53.286;8.534;2023-06-22T01:32:48;19.77;;;15.70;;
13943;SDS011;7044;53.286;8.534;2023-06-22T01:35:16;22.15;;;15.90;;
13943;SDS011;7044;53.286;8.534;2023-06-22T01:37:44;18.58;;;15.30;;
13943;SDS011;7044;53.286;8.534;2023-06-22T01:40:11;17.00;;;14.68;;
13943;SDS011;7044;53.286;8.534;2023-06-22T01:42:39;19.67;;;15.27;;
13943;SDS011;7044;53.286;8.534;2023-06-22T01:45:08;17.60;;;14.70;;
13943;SDS011;7044;53.286;8.534;2023-06-22T01:47:38;17.95;;;14.45;;
13943;SDS011;7044;53.286;8.534;2023-06-22T01:50:06;16.63;;;14.07;;
13943;SDS011;7044;53.286;8.534;2023-06-22T01:52:33;17.38;;;13.43;;
13943;SDS011;7044;53.286;8.534;2023-06-22T01:55:00;19.48;;;12.85;;
13943;SDS011;7044;53.286;8.534;2023-06-22T01:57:27;15.05;;;13.18;;
13943;SDS011;7044;53.286;8.534;2023-06-22T01:59:58;17.63;;;13.25;;
13943;SDS011;7044;53.286;8.534;2023-06-22T02:02:28;17.67;;;13.32;;
13943;SDS011;7044;53.286;8.534;2023-06-22T02:05:04;19.80;;;13.93;;
13943;SDS011;7044;53.286;8.534;2023-06-22T02:07:34;16.70;;;12.50;;
13943;SDS011;7044;53.286;8.534;2023-06-22T02:10:08;13.13;;;11.70;;
13943;SDS011;7044;53.286;8.534;2023-06-22T02:12:37;15.40;;;13.73;;
13943;SDS011;7044;53.286;8.534;2023-06-22T02:15:06;14.50;;;12.68;;
13943;SDS011;7044;53.286;8.534;2023-06-22T02:17:35;15.90;;;13.77;;
13943;SDS011;7044;53.286;8.534;2023-06-22T02:20:04;16.27;;;12.70;;
13943;SDS011;7044;53.286;8.534;2023-06-22T02:22:33;16.50;;;12.43;;
13943;SDS011;7044;53.286;8.534;2023-06-22T02:25:00;16.52;;;11.52;;
13943;SDS011;7044;53.286;8.534;2023-06-22T02:27:27;12.95;;;11.55;;
13943;SDS011;7044;53.286;8.534;2023-06-22T02:29:54;12.90;;;10.48;;
13943;SDS011;7044;53.286;8.534;2023-06-22T02:32:20;13.00;;;10.13;;
13943;SDS011;7044;53.286;8.534;2023-06-22T02:34:47;12.88;;;10.57;;
13943;SDS011;7044;53.286;8.534;2023-06-22T02:37:16;14.68;;;10.75;;
13943;SDS011;7044;53.286;8.534;2023-06-22T02:39:43;13.65;;;10.52;;
13943;SDS011;7044;53.286;8.534;2023-06-22T02:42:10;15.48;;;11.35;;
13943;SDS011;7044;53.286;8.534;2023-06-22T02:44:36;13.55;;;10.77;;
13943;SDS011;7044;53.286;8.534;2023-06-22T02:47:03;14.18;;;11.73;;
13943;SDS011;7044;53.286;8.534;2023-06-22T02:49:31;15.10;;;12.05;;
13943;SDS011;7044;53.286;8.534;2023-06-22T02:51:58;12.23;;;10.77;;
13943;SDS011;7044;53.286;8.534;2023-06-22T02:54:26;15.32;;;11.75;;
13943;SDS011;7044;53.286;8.534;2023-06-22T02:56:53;16.08;;;11.88;;
13943;SDS011;7044;53.286;8.534;2023-06-22T02:59:20;14.65;;;12.13;;
13943;SDS011;7044;53.286;8.534;2023-06-22T03:01:48;20.50;;;13.45;;
13943;SDS011;7044;53.286;8.534;2023-06-22T03:04:15;14.65;;;13.15;;
13943;SDS011;7044;53.286;8.534;2023-06-22T03:06:42;17.27;;;13.77;;
13943;SDS011;7044;53.286;8.534;2023-06-22T03:09:09;20.33;;;15.75;;
13943;SDS011;7044;53.286;8.534;2023-06-22T03:11:37;17.80;;;15.65;;
13943;SDS011;7044;53.286;8.534;2023-06-22T03:14:04;19.73;;;15.70;;
13943;SDS011;7044;53.286;8.534;2023-06-22T03:16:31;21.90;;;17.23;;
13943;SDS011;7044;53.286;8.534;2023-06-22T03:18:58;19.38;;;15.30;;
13943;SDS011;7044;53.286;8.534;2023-06-22T03:21:26;19.88;;;16.00;;
13943;SDS011;7044;53.286;8.534;2023-06-22T03:23:54;20.83;;;15.52;;
13943;SDS011;7044;53.286;8.534;2023-06-22T03:26:21;20.80;;;14.77;;
13943;SDS011;7044;53.286;8.534;2023-06-22T03:28:53;16.20;;;13.98;;
13943;SDS011;7044;53.286;8.534;2023-06-22T03:31:19;16.42;;;13.25;;
13943;SDS011;7044;53.286;8.534;2023-06-22T03:33:46;16.17;;;12.57;;
13943;SDS011;7044;53.286;8.534;2023-06-22T03:36:14;15.02;;;11.40;;
13943;SDS011;7044;53.286;8.534;2023-06-22T03:38:43;17.15;;;14.57;;
13943;SDS011;7044;53.286;8.534;2023-06-22T03:41:10;13.73;;;12.15;;
13943;SDS011;7044;53.286;8.534;2023-06-22T03:43:37;14.18;;;11.60;;
13943;SDS011;7044;53.286;8.534;2023-06-22T03:46:05;15.88;;;12.32;;
13943;SDS011;7044;53.286;8.534;2023-06-22T03:48:32;15.63;;;11.93;;
13943;SDS011;7044;53.286;8.534;2023-06-22T03:50:59;17.83;;;13.68;;
13943;SDS011;7044;53.286;8.534;2023-06-22T03:53:28;23.35;;;17.00;;
13943;SDS011;7044;53.286;8.534;2023-06-22T03:55:54;20.85;;;16.40;;
13943;SDS011;7044;53.286;8.534;2023-06-22T03:58:22;19.60;;;16.52;;
13943;SDS011;7044;53.286;8.534;2023-06-22T04:00:49;17.08;;;14.68;;
13943;SDS011;7044;53.286;8.534;2023-06-22T04:03:18;18.23;;;16.00;;
13943;SDS011;7044;53.286;8.534;2023-06-22T04:05:46;19.85;;;15.43;;
13943;SDS011;7044;53.286;8.534;2023-06-22T04:08:13;21.98;;;16.25;;
13943;SDS011;7044;53.286;8.534;2023-06-22T04:10:40;18.40;;;15.68;;
13943;SDS011;7044;53.286;8.534;2023-06-22T04:13:07;20.23;;;16.63;;
13943;SDS011;7044;53.286;8.534;2023-06-22T04:15:34;25.15;;;17.45;;
13943;SDS011;7044;53.286;8.534;2023-06-22T04:18:01;21.30;;;16.55;;
13943;SDS011;7044;53.286;8.534;2023-06-22T04:20:30;18.67;;;15.95;;
13943;SDS011;7044;53.286;8.534;2023-06-22T04:22:57;20.85;;;18.15;;
13943;SDS011;7044;53.286;8.534;2023-06-22T04:25:24;26.08;;;18.88;;
13943;SDS011;7044;53.286;8.534;2023-06-22T04:27:51;26.98;;;18.55;;
13943;SDS011;7044;53.286;8.534;2023-06-22T04:30:18;24.27;;;18.25;;
13943;SDS011;7044;53.286;8.534;2023-06-22T04:32:45;25.73;;;18.95;;
13943;SDS011;7044;53.286;8.534;2023-06-22T04:35:21;21.58;;;15.50;;
13943;SDS011;7044;53.286;8.534;2023-06-22T04:37:49;21.33;;;15.70;;
13943;SDS011;7044;53.286;8.534;2023-06-22T04:40:19;19.98;;;15.52;;
13943;SDS011;7044;53.286;8.534;2023-06-22T04:42:47;21.45;;;15.85;;
13943;SDS011;7044;53.286;8.534;2023-06-22T04:45:18;17.88;;;14.98;;
13943;SDS011;7044;53.286;8.534;2023-06-22T04:47:44;21.75;;;15.65;;
13943;SDS011;7044;53.286;8.534;2023-06-22T04:50:11;21.77;;;15.25;;
13943;SDS011;7044;53.286;8.534;2023-06-22T04:52:38;16.08;;;12.88;;
13943;SDS011;7044;53.286;8.534;2023-06-22T04:55:07;19.20;;;13.95;;
13943;SDS011;7044;53.286;8.534;2023-06-22T04:57:35;18.15;;;14.30;;
13943;SDS011;7044;53.286;8.534;2023-06-22T05:00:05;16.13;;;13.70;;
13943;SDS011;7044;53.286;8.534;2023-06-22T05:02:37;17.70;;;13.85;;
13943;SDS011;7044;53.286;8.534;2023-06-22T05:05:04;16.70;;;13.13;;
13943;SDS011;7044;53.286;8.534;2023-06-22T05:07:32;16.50;;;13.88;;
13943;SDS011;7044;53.286;8.534;2023-06-22T05:09:59;19.20;;;15.70;;
13943;SDS011;7044;53.286;8.534;2023-06-22T05:12:29;18.25;;;14.52;;
13943;SDS011;7044;53.286;8.534;2023-06-22T05:14:56;18.20;;;14.55;;
13943;SDS011;7044;53.286;8.534;2023-06-22T05:17:24;19.42;;;15.15;;
13943;SDS011;7044;53.286;8.534;2023-06-22T05:19:51;21.58;;;13.73;;
13943;SDS011;7044;53.286;8.534;2023-06-22T05:22:18;17.05;;;14.13;;
13943;SDS011;7044;53.286;8.534;2023-06-22T05:24:45;20.25;;;15.63;;
13943;SDS011;7044;53.286;8.534;2023-06-22T05:27:12;16.90;;;14.32;;
13943;SDS011;7044;53.286;8.534;2023-06-22T05:29:41;16.80;;;14.05;;
13943;SDS011;7044;53.286;8.534;2023-06-22T05:32:08;20.95;;;14.55;;
13943;SDS011;7044;53.286;8.534;2023-06-22T05:34:35;22.55;;;15.63;;
13943;SDS011;7044;53.286;8.534;2023-06-22T05:37:02;21.65;;;15.25;;
13943;SDS011;7044;53.286;8.534;2023-06-22T05:39:30;21.33;;;14.85;;
13943;SDS011;7044;53.286;8.534;2023-06-22T05:41:57;20.15;;;15.43;;
13943;SDS011;7044;53.286;8.534;2023-06-22T05:44:24;18.42;;;15.32;;
13943;SDS011;7044;53.286;8.534;2023-06-22T05:46:52;20.55;;;15.57;;
13943;SDS011;7044;53.286;8.534;2023-06-22T05:49:19;19.83;;;15.63;;
13943;SDS011;7044;53.286;8.534;2023-06-22T05:51:47;21.50;;;17.20;;
13943;SDS011;7044;53.286;8.534;2023-06-22T05:54:13;24.92;;;17.80;;
13943;SDS011;7044;53.286;8.534;2023-06-22T05:56:42;23.88;;;18.40;;
13943;SDS011;7044;53.286;8.534;2023-06-22T05:59:09;25.42;;;18.45;;
13943;SDS011;7044;53.286;8.534;2023-06-22T06:01:37;21.52;;;17.30;;
13943;SDS011;7044;53.286;8.534;2023-06-22T06:04:07;23.10;;;17.08;;
13943;SDS011;7044;53.286;8.534;2023-06-22T06:06:34;19.58;;;15.98;;
13943;SDS011;7044;53.286;8.534;2023-06-22T06:09:02;19.70;;;16.65;;
13943;SDS011;7044;53.286;8.534;2023-06-22T06:11:29;20.20;;;16.33;;
13943;SDS011;7044;53.286;8.534;2023-06-22T06:13:56;21.02;;;16.80;;
13943;SDS011;7044;53.286;8.534;2023-06-22T06:16:23;22.90;;;16.45;;
13943;SDS011;7044;53.286;8.534;2023-06-22T06:18:50;20.42;;;15.05;;
13943;SDS011;7044;53.286;8.534;2023-06-22T06:21:19;18.23;;;15.27;;
13943;SDS011;7044;53.286;8.534;2023-06-22T06:23:46;17.88;;;15.98;;
13943;SDS011;7044;53.286;8.534;2023-06-22T06:26:13;19.90;;;14.38;;
13943;SDS011;7044;53.286;8.534;2023-06-22T06:28:41;16.83;;;13.40;;
13943;SDS011;7044;53.286;8.534;2023-06-22T06:31:08;18.77;;;13.15;;
13943;SDS011;7044;53.286;8.534;2023-06-22T06:33:37;15.35;;;12.13;;
13943;SDS011;7044;53.286;8.534;2023-06-22T06:36:04;16.05;;;11.45;;
13943;SDS011;7044;53.286;8.534;2023-06-22T06:38:34;15.25;;;11.93;;
13943;SDS011;7044;53.286;8.534;2023-06-22T06:41:01;15.00;;;11.38;;
13943;SDS011;7044;53.286;8.534;2023-06-22T06:43:28;12.52;;;9.55;;
13943;SDS011;7044;53.286;8.534;2023-06-22T06:45:55;14.85;;;11.45;;
13943;SDS011;7044;53.286;8.534;2023-06-22T06:48:22;11.63;;;9.57;;
13943;SDS011;7044;53.286;8.534;2023-06-22T06:50:48;12.02;;;9.18;;
13943;SDS011;7044;53.286;8.534;2023-06-22T06:53:15;14.75;;;10.35;;
13943;SDS011;7044;53.286;8.534;2023-06-22T06:55:43;13.20;;;10.20;;
13943;SDS011;7044;53.286;8.534;2023-06-22T06:58:11;13.32;;;10.25;;
13943;SDS011;7044;53.286;8.534;2023-06-22T07:00:38;11.23;;;8.68;;
13943;SDS011;7044;53.286;8.534;2023-06-22T07:03:05;13.27;;;9.38;;
13943;SDS011;7044;53.286;8.534;2023-06-22T07:05:33;15.70;;;8.77;;
13943;SDS011;7044;53.286;8.534;2023-06-22T07:08:00;10.15;;;8.57;;
13943;SDS011;7044;53.286;8.534;2023-06-22T07:10:27;11.93;;;9.77;;
13943;SDS011;7044;53.286;8.534;2023-06-22T07:12:55;10.40;;;8.65;;
13943;SDS011;7044;53.286;8.534;2023-06-22T07:15:23;12.45;;;8.95;;
13943;SDS011;7044;53.286;8.534;2023-06-22T07:17:50;13.43;;;10.02;;
13943;SDS011;7044;53.286;8.534;2023-06-22T07:20:17;11.07;;;8.77;;
13943;SDS011;7044;53.286;8.534;2023-06-22T07:22:44;10.27;;;8.10;;
13943;SDS011;7044;53.286;8.534;2023-06-22T07:25:11;7.72;;;6.72;;
13943;SDS011;7044;53.286;8.534;2023-06-22T07:27:44;12.88;;;7.80;;
13943;SDS011;7044;53.286;8.534;2023-06-22T07:30:14;7.90;;;6.80;;
13943;SDS011;7044;53.286;8.534;2023-06-22T07:32:41;11.35;;;7.43;;
13943;SDS011;7044;53.286;8.534;2023-06-22T07:35:08;9.73;;;6.93;;
13943;SDS011;7044;53.286;8.534;2023-06-22T07:37:35;9.02;;;6.85;;
13943;SDS011;7044;53.286;8.534;2023-06-22T07:40:02;9.65;;;7.30;;
13943;SDS011;7044;53.286;8.534;2023-06-22T07:42:31;11.02;;;7.80;;
13943;SDS011;7044;53.286;8.534;2023-06-22T07:44:58;13.38;;;7.15;;
13943;SDS011;7044;53.286;8.534;2023-06-22T07:47:28;12.95;;;6.78;;
13943;SDS011;7044;53.286;8.534;2023-06-22T07:49:55;9.82;;;7.32;;
13943;SDS011;7044;53.286;8.534;2023-06-22T07:52:26;9.90;;;7.10;;
13943;SDS011;7044;53.286;8.534;2023-06-22T07:54:53;9.02;;;6.10;;
13943;SDS011;7044;53.286;8.534;2023-06-22T07:57:19;9.18;;;6.38;;
13943;SDS011;7044;53.286;8.534;2023-06-22T07:59:47;8.38;;;6.70;;
13943;SDS011;7044;53.286;8.534;2023-06-22T08:02:14;8.95;;;6.07;;
13943;SDS011;7044;53.286;8.534;2023-06-22T08:04:42;12.95;;;6.90;;
13943;SDS011;7044;53.286;8.534;2023-06-22T08:07:09;9.00;;;5.57;;
13943;SDS011;7044;53.286;8.534;2023-06-22T08:09:36;9.65;;;5.60;;
13943;SDS011;7044;53.286;8.534;2023-06-22T08:12:03;8.40;;;5.53;;
13943;SDS011;7044;53.286;8.534;2023-06-22T08:14:31;10.18;;;5.88;;
13943;SDS011;7044;53.286;8.534;2023-06-22T08:17:01;8.32;;;5.18;;
13943;SDS011;7044;53.286;8.534;2023-06-22T08:19:28;5.78;;;4.55;;
13943;SDS011;7044;53.286;8.534;2023-06-22T08:21:56;5.60;;;4.38;;
13943;SDS011;7044;53.286;8.534;2023-06-22T08:24:23;10.93;;;4.90;;
13943;SDS011;7044;53.286;8.534;2023-06-22T08:26:50;7.25;;;5.15;;
13943;SDS011;7044;53.286;8.534;2023-06-22T08:29:18;5.43;;;4.38;;
13943;SDS011;7044;53.286;8.534;2023-06-22T08:31:45;7.15;;;5.30;;
13943;SDS011;7044;53.286;8.534;2023-06-22T08:34:12;6.07;;;4.30;;
13943;SDS011;7044;53.286;8.534;2023-06-22T08:36:38;5.90;;;4.72;;
13943;SDS011;7044;53.286;8.534;2023-06-22T08:39:11;8.52;;;4.70;;
13943;SDS011;7044;53.286;8.534;2023-06-22T08:41:38;5.25;;;3.70;;
13943;SDS011;7044;53.286;8.534;2023-06-22T08:44:04;11.02;;;4.75;;
13943;SDS011;7044;53.286;8.534;2023-06-22T08:46:31;6.43;;;5.15;;
13943;SDS011;7044;53.286;8.534;2023-06-22T08:48:58;4.95;;;4.25;;
13943;SDS011;7044;53.286;8.534;2023-06-22T08:51:26;7.20;;;4.57;;
13943;SDS011;7044;53.286;8.534;2023-06-22T08:53:53;5.97;;;4.47;;
13943;SDS011;7044;53.286;8.534;2023-06-22T08:56:21;6.65;;;4.75;;
13943;SDS011;7044;53.286;8.534;2023-06-22T08:58:50;7.72;;;5.10;;
13943;SDS011;7044;53.286;8.534;2023-06-22T09:01:16;9.38;;;5.80;;
13943;SDS011;7044;53.286;8.534;2023-06-22T09:03:43;7.15;;;5.47;;
13943;SDS011;7044;53.286;8.534;2023-06-22T09:06:18;7.90;;;4.28;;
13943;SDS011;7044;53.286;8.534;2023-06-22T09:08:45;7.13;;;4.90;;
13943;SDS011;7044;53.286;8.534;2023-06-22T09:11:12;5.50;;;4.95;;
13943;SDS011;7044;53.286;8.534;2023-06-22T09:13:41;6.05;;;5.45;;
13943;SDS011;7044;53.286;8.534;2023-06-22T09:16:08;7.70;;;5.65;;
13943;SDS011;7044;53.286;8.534;2023-06-22T09:18:36;6.72;;;5.30;;
13943;SDS011;7044;53.286;8.534;2023-06-22T09:21:03;6.82;;;5.03;;
13943;SDS011;7044;53.286;8.534;2023-06-22T09:23:30;8.23;;;6.95;;
13943;SDS011;7044;53.286;8.534;2023-06-22T09:25:57;8.73;;;5.57;;
13943;SDS011;7044;53.286;8.534;2023-06-22T09:28:24;6.80;;;4.50;;
13943;SDS011;7044;53.286;8.534;2023-06-22T09:30:52;7.05;;;5.15;;
13943;SDS011;7044;53.286;8.534;2023-06-22T09:33:24;6.20;;;4.32;;
13943;SDS011;7044;53.286;8.534;2023-06-22T09:35:51;7.90;;;5.80;;
13943;SDS011;7044;53.286;8.534;2023-06-22T09:38:18;7.03;;;5.40;;
13943;SDS011;7044;53.286;8.534;2023-06-22T09:40:44;7.85;;;5.07;;
13943;SDS011;7044;53.286;8.534;2023-06-22T09:43:11;5.72;;;4.20;;
13943;SDS011;7044;53.286;8.534;2023-06-22T09:45:38;4.75;;;3.50;;
13943;SDS011;7044;53.286;8.534;2023-06-22T09:48:06;5.53;;;3.97;;
13943;SDS011;7044;53.286;8.534;2023-06-22T09:50:34;4.03;;;3.53;;
13943;SDS011;7044;53.286;8.534;2023-06-22T09:53:02;5.45;;;4.40;;
13943;SDS011;7044;53.286;8.534;2023-06-22T09:55:29;6.13;;;4.03;;
13943;SDS011;7044;53.286;8.534;2023-06-22T09:57:55;3.92;;;2.90;;
13943;SDS011;7044;53.286;8.534;2023-06-22T10:00:22;4.15;;;2.95;;
13943;SDS011;7044;53.286;8.534;2023-06-22T10:02:49;3.53;;;3.13;;
13943;SDS011;7044;53.286;8.534;2023-06-22T10:05:18;5.07;;;3.33;;
13943;SDS011;7044;53.286;8.534;2023-06-22T10:07:44;6.00;;;3.42;;
13943;SDS011;7044;53.286;8.534;2023-06-22T10:10:11;3.50;;;2.72;;
13943;SDS011;7044;53.286;8.534;2023-06-22T10:12:44;4.07;;;3.08;;
13943;SDS011;7044;53.286;8.534;2023-06-22T10:15:12;4.25;;;3.05;;
13943;SDS011;7044;53.286;8.534;2023-06-22T10:17:39;5.13;;;3.50;;
13943;SDS011;7044;53.286;8.534;2023-06-22T10:20:07;5.22;;;3.92;;
13943;SDS011;7044;53.286;8.534;2023-06-22T10:22:39;3.70;;;3.22;;
13943;SDS011;7044;53.286;8.534;2023-06-22T10:25:07;3.60;;;2.97;;
13943;SDS011;7044;53.286;8.534;2023-06-22T10:27:34;5.57;;;3.47;;
13943;SDS011;7044;53.286;8.534;2023-06-22T10:30:01;6.75;;;3.10;;
13943;SDS011;7044;53.286;8.534;2023-06-22T10:32:30;4.20;;;2.97;;
13943;SDS011;7044;53.286;8.534;2023-06-22T10:34:58;3.95;;;3.20;;
13943;SDS011;7044;53.286;8.534;2023-06-22T10:37:24;5.28;;;3.35;;
13943;SDS011;7044;53.286;8.534;2023-06-22T10:39:53;6.03;;;3.60;;
13943;SDS011;7044;53.286;8.534;2023-06-22T10:42:20;3.78;;;3.15;;
13943;SDS011;7044;53.286;8.534;2023-06-22T10:44:47;7.20;;;4.00;;
13943;SDS011;7044;53.286;8.534;2023-06-22T10:47:13;4.25;;;3.55;;
13943;SDS011;7044;53.286;8.534;2023-06-22T10:49:40;5.88;;;3.70;;
13943;SDS011;7044;53.286;8.534;2023-06-22T10:52:08;6.35;;;3.67;;
13943;SDS011;7044;53.286;8.534;2023-06-22T10:54:35;5.28;;;4.03;;
13943;SDS011;7044;53.286;8.534;2023-06-22T10:57:04;7.13;;;4.00;;
13943;SDS011;7044;53.286;8.534;2023-06-22T10:59:31;6.82;;;3.90;;
13943;SDS011;7044;53.286;8.534;2023-06-22T11:01:58;4.70;;;3.72;;
13943;SDS011;7044;53.286;8.534;2023-06-22T11:04:25;4.43;;;4.03;;
13943;SDS011;7044;53.286;8.534;2023-06-22T11:06:52;6.13;;;4.00;;
13943;SDS011;7044;53.286;8.534;2023-06-22T11:09:19;8.10;;;3.83;;
13943;SDS011;7044;53.286;8.534;2023-06-22T11:11:46;4.68;;;3.60;;
13943;SDS011;7044;53.286;8.534;2023-06-22T11:14:14;5.43;;;3.70;;
13943;SDS011;7044;53.286;8.534;2023-06-22T11:16:41;4.07;;;3.63;;
13943;SDS011;7044;53.286;8.534;2023-06-22T11:19:08;5.32;;;3.90;;
13943;SDS011;7044;53.286;8.534;2023-06-22T11:21:35;4.35;;;3.72;;
13943;SDS011;7044;53.286;8.534;2023-06-22T11:24:02;6.20;;;4.10;;
13943;SDS011;7044;53.286;8.534;2023-06-22T11:26:29;6.18;;;4.32;;
13943;SDS011;7044;53.286;8.534;2023-06-22T11:28:56;5.60;;;4.68;;
13943;SDS011;7044;53.286;8.534;2023-06-22T11:31:25;6.07;;;4.80;;
13943;SDS011;7044;53.286;8.534;2023-06-22T11:33:52;5.63;;;4.70;;
13943;SDS011;7044;53.286;8.534;2023-06-22T11:36:19;6.60;;;5.15;;
13943;SDS011;7044;53.286;8.534;2023-06-22T11:38:46;6.55;;;4.40;;
13943;SDS011;7044;53.286;8.534;2023-06-22T11:41:13;7.95;;;4.25;;
13943;SDS011;7044;53.286;8.534;2023-06-22T11:43:40;6.72;;;4.50;;
13943;SDS011;7044;53.286;8.534;2023-06-22T11:46:07;6.07;;;4.53;;
13943;SDS011;7044;53.286;8.534;2023-06-22T11:48:35;5.32;;;4.28;;
13943;SDS011;7044;53.286;8.534;2023-06-22T11:51:02;6.28;;;4.22;;
13943;SDS011;7044;53.286;8.534;2023-06-22T11:53:31;4.70;;;4.18;;
13943;SDS011;7044;53.286;8.534;2023-06-22T11:55:59;4.93;;;4.43;;
13943;SDS011;7044;53.286;8.534;2023-06-22T11:58:26;5.53;;;4.65;;
13943;SDS011;7044;53.286;8.534;2023-06-22T12:00:53;4.88;;;4.20;;
13943;SDS011;7044;53.286;8.534;2023-06-22T12:03:20;6.13;;;4.72;;
13943;SDS011;7044;53.286;8.534;2023-06-22T12:05:49;6.97;;;5.03;;
13943;SDS011;7044;53.286;8.534;2023-06-22T12:08:16;5.55;;;4.50;;
13943;SDS011;7044;53.286;8.534;2023-06-22T12:10:43;6.28;;;4.25;;
13943;SDS011;7044;53.286;8.534;2023-06-22T12:13:10;6.20;;;4.57;;
13943;SDS011;7044;53.286;8.534;2023-06-22T12:15:37;7.05;;;4.50;;
13943;SDS011;7044;53.286;8.534;2023-06-22T12:18:04;6.88;;;4.00;;
13943;SDS011;7044;53.286;8.534;2023-06-22T12:20:31;6.35;;;4.72;;
13943;SDS011;7044;53.286;8.534;2023-06-22T12:22:59;5.90;;;4.32;;
13943;SDS011;7044;53.286;8.534;2023-06-22T12:25:26;6.30;;;4.78;;
13943;SDS011;7044;53.286;8.534;2023-06-22T12:27:53;6.25;;;4.32;;
13943;SDS011;7044;53.286;8.534;2023-06-22T12:30:20;5.93;;;5.32;;
13943;SDS011;7044;53.286;8.534;2023-06-22T12:32:47;5.32;;;4.82;;
13943;SDS011;7044;53.286;8.534;2023-06-22T12:35:14;6.55;;;4.65;;
13943;SDS011;7044;53.286;8.534;2023-06-22T12:37:41;9.00;;;4.57;;
13943;SDS011;7044;53.286;8.534;2023-06-22T12:40:10;6.65;;;4.93;;
13943;SDS011;7044;53.286;8.534;2023-06-22T12:42:37;9.13;;;4.88;;
13943;SDS011;7044;53.286;8.534;2023-06-22T12:45:04;5.70;;;4.68;;
13943;SDS011;7044;53.286;8.534;2023-06-22T12:47:32;6.97;;;5.32;;
13943;SDS011;7044;53.286;8.534;2023-06-22T12:49:59;5.82;;;5.22;;
13943;SDS011;7044;53.286;8.534;2023-06-22T12:52:25;7.05;;;5.05;;
13943;SDS011;7044;53.286;8.534;2023-06-22T12:54:52;8.48;;;5.80;;
13943;SDS011;7044;53.286;8.534;2023-06-22T12:57:21;7.93;;;5.70;;
13943;SDS011;7044;53.286;8.534;2023-06-22T12:59:48;7.53;;;5.60;;
13943;SDS011;7044;53.286;8.534;2023-06-22T13:02:15;5.80;;;4.97;;
13943;SDS011;7044;53.286;8.534;2023-06-22T13:04:42;6.63;;;5.43;;
13943;SDS011;7044;53.286;8.534;2023-06-22T13:07:09;6.88;;;5.80;;
13943;SDS011;7044;53.286;8.534;2023-06-22T13:09:36;10.65;;;6.10;;
13943;SDS011;7044;53.286;8.534;2023-06-22T13:12:03;6.70;;;6.00;;
13943;SDS011;7044;53.286;8.534;2023-06-22T13:14:31;6.78;;;5.90;;
13943;SDS011;7044;53.286;8.534;2023-06-22T13:17:00;5.95;;;5.00;;
13943;SDS011;7044;53.286;8.534;2023-06-22T13:19:27;6.75;;;5.63;;
13943;SDS011;7044;53.286;8.534;2023-06-22T13:21:57;6.97;;;5.28;;
13943;SDS011;7044;53.286;8.534;2023-06-22T13:24:25;6.80;;;5.70;;
13943;SDS011;7044;53.286;8.534;2023-06-22T13:26:52;7.45;;;5.25;;
13943;SDS011;7044;53.286;8.534;2023-06-22T13:29:22;6.95;;;6.13;;
13943;SDS011;7044;53.286;8.534;2023-06-22T13:31:50;7.43;;;6.53;;
13943;SDS011;7044;53.286;8.534;2023-06-22T13:34:17;8.10;;;6.57;;
13943;SDS011;7044;53.286;8.534;2023-06-22T13:36:44;6.53;;;5.85;;
13943;SDS011;7044;53.286;8.534;2023-06-22T13:39:11;7.90;;;6.20;;
13943;SDS011;7044;53.286;8.534;2023-06-22T13:41:38;7.00;;;5.18;;
13943;SDS011;7044;53.286;8.534;2023-06-22T13:44:04;6.47;;;5.78;;
13943;SDS011;7044;53.286;8.534;2023-06-22T13:46:31;10.35;;;5.18;;
13943;SDS011;7044;53.286;8.534;2023-06-22T13:49:00;7.35;;;6.03;;
13943;SDS011;7044;53.286;8.534;2023-06-22T13:51:26;6.53;;;5.53;;
13943;SDS011;7044;53.286;8.534;2023-06-22T13:53:53;13.80;;;6.20;;
13943;SDS011;7044;53.286;8.534;2023-06-22T13:56:20;8.38;;;6.03;;
13943;SDS011;7044;53.286;8.534;2023-06-22T13:58:47;7.30;;;6.05;;
13943;SDS011;7044;53.286;8.534;2023-06-22T14:01:14;7.78;;;6.50;;
13943;SDS011;7044;53.286;8.534;2023-06-22T14:03:41;10.95;;;6.00;;
13943;SDS011;7044;53.286;8.534;2023-06-22T14:06:12;7.38;;;6.07;;
13943;SDS011;7044;53.286;8.534;2023-06-22T14:08:39;6.45;;;5.68;;
13943;SDS011;7044;53.286;8.534;2023-06-22T14:11:05;7.97;;;6.40;;
13943;SDS011;7044;53.286;8.534;2023-06-22T14:13:33;7.72;;;6.30;;
13943;SDS011;7044;53.286;8.534;2023-06-22T14:16:00;9.07;;;6.10;;
13943;SDS011;7044;53.286;8.534;2023-06-22T14:18:28;11.52;;;6.22;;
13943;SDS011;7044;53.286;8.534;2023-06-22T14:20:54;6.93;;;5.80;;
13943;SDS011;7044;53.286;8.534;2023-06-22T14:23:24;8.45;;;5.97;;
13943;SDS011;7044;53.286;8.534;2023-06-22T14:25:51;5.78;;;4.88;;
13943;SDS011;7044;53.286;8.534;2023-06-22T14:28:17;6.00;;;5.25;;
13943;SDS011;7044;53.286;8.534;2023-06-22T14:30:44;10.98;;;5.85;;
13943;SDS011;7044;53.286;8.534;2023-06-22T14:33:11;11.73;;;7.13;;
13943;SDS011;7044;53.286;8.534;2023-06-22T14:35:38;13.57;;;6.47;;
13943;SDS011;7044;53.286;8.534;2023-06-22T14:38:05;8.55;;;6.18;;
13943;SDS011;7044;53.286;8.534;2023-06-22T14:40:33;6.80;;;5.32;;
13943;SDS011;7044;53.286;8.534;2023-06-22T14:43:00;8.05;;;6.32;;
13943;SDS011;7044;53.286;8.534;2023-06-22T14:45:27;6.10;;;5.50;;
13943;SDS011;7044;53.286;8.534;2023-06-22T14:47:54;7.65;;;5.57;;
13943;SDS011;7044;53.286;8.534;2023-06-22T14:50:21;7.15;;;5.97;;